Time;durP1;ratioP1;P1;durP2;ratioP2;P2;SDS_P1;SDS_P2;PMS_P1;PMS_P2;Temp;Humidity;BMP_temperature;BMP_pressure;BME280_temperature;BME280_humidity;BME280_pressure;Samples;Min_cycle;Max_cycle;Signal;HPM_P1;HPM_P2
2022/10/16 00:02:47;;;;;;;667.85;617.63;;;15.70;99.90;;;15.79;100.00;100511.19;4839558;29;20210;-85
2022/10/16 00:05:44;;;;;;;667.88;617.58;;;15.70;99.90;;;15.76;100.00;100505.00;4839930;29;20233;-85
2022/10/16 00:08:32;;;;;;;664.42;614.10;;;15.60;99.90;;;15.73;100.00;100510.38;4846855;29;20228;-84
2022/10/16 00:11:33;;;;;;;670.17;619.70;;;15.60;99.90;;;15.71;100.00;100517.50;4861071;29;20212;-85
2022/10/16 00:14:21;;;;;;;670.25;619.65;;;15.60;99.90;;;15.64;100.00;100535.34;4874865;29;20208;-84
2022/10/16 00:17:09;;;;;;;664.90;614.70;;;15.50;99.90;;;15.68;100.00;100539.75;4858860;29;20205;-84
2022/10/16 00:19:57;;;;;;;663.45;613.25;;;15.50;99.90;;;15.62;100.00;100534.47;4870214;29;20590;-84
2022/10/16 00:22:46;;;;;;;666.92;617.28;;;15.50;99.90;;;15.61;100.00;100536.25;4859646;29;20209;-85
2022/10/16 00:25:34;;;;;;;664.05;614.28;;;15.50;99.90;;;15.59;100.00;100548.69;4870038;29;20243;-85
2022/10/16 00:28:22;;;;;;;661.45;611.47;;;15.50;99.90;;;15.55;100.00;100562.03;4859901;29;20236;-84
2022/10/16 00:31:12;;;;;;;666.90;616.75;;;15.40;99.90;;;15.57;100.00;100562.88;4861111;29;20216;-84
2022/10/16 00:34:01;;;;;;;660.10;610.50;;;15.40;99.90;;;15.54;100.00;100562.91;4877526;29;20254;-84
2022/10/16 00:36:49;;;;;;;663.10;613.22;;;15.40;99.90;;;15.56;100.00;100566.47;4869091;29;20209;-84
2022/10/16 00:39:37;;;;;;;658.85;609.13;;;15.40;99.90;;;15.63;100.00;100573.56;4869855;29;20229;-84
2022/10/16 00:42:26;;;;;;;657.70;607.85;;;15.40;99.90;;;15.62;100.00;100575.34;4864792;29;20694;-83
2022/10/16 00:45:15;;;;;;;663.90;613.50;;;15.50;99.90;;;15.60;100.00;100574.47;4872204;29;20232;-84
2022/10/16 00:48:03;;;;;;;658.08;607.95;;;15.40;99.90;;;15.65;100.00;100583.31;4876391;29;20220;-84
2022/10/16 00:50:52;;;;;;;654.72;604.75;;;15.50;99.90;;;15.65;100.00;100585.97;4874257;29;20205;-84
2022/10/16 00:53:40;;;;;;;659.15;609.15;;;15.50;99.90;;;15.64;100.00;100588.66;4851819;29;20671;-84
2022/10/16 00:56:29;;;;;;;661.95;611.80;;;15.50;99.90;;;15.64;100.00;100594.88;4875758;29;20220;-84
2022/10/16 00:59:27;;;;;;;656.25;606.53;;;15.50;99.90;;;15.69;100.00;100600.16;4869889;29;20233;-84
2022/10/16 01:02:16;;;;;;;655.25;605.67;;;15.50;99.90;;;15.63;100.00;100592.22;4850867;29;20216;-85
2022/10/16 01:05:05;;;;;;;652.25;602.92;;;15.50;99.90;;;15.63;100.00;100603.78;4844061;29;20229;-84
2022/10/16 01:08:42;;;;;;;656.13;606.85;;;15.50;99.90;;;15.63;100.00;100606.44;4841691;29;20549;-84
2022/10/16 01:11:41;;;;;;;646.53;596.65;;;15.40;99.90;;;15.61;100.00;100610.91;4854901;29;20332;-85
2022/10/16 01:14:53;;;;;;;648.75;599.25;;;15.40;99.90;;;15.60;100.00;100601.13;4879164;29;20674;-85
2022/10/16 01:18:04;;;;;;;642.30;592.65;;;15.50;99.90;;;15.56;100.00;100596.66;4879457;29;20228;-85
2022/10/16 01:21:16;;;;;;;641.28;591.53;;;15.40;99.90;;;15.50;100.00;100596.72;4879410;29;20546;-85
2022/10/16 01:24:32;;;;;;;641.88;592.05;;;15.60;99.90;;;15.51;100.00;100605.59;4880140;29;20220;-85
2022/10/16 01:27:30;;;;;;;645.92;595.97;;;15.30;99.90;;;15.43;100.00;100597.66;4869354;29;20236;-85
2022/10/16 01:30:27;;;;;;;641.88;593.15;;;15.30;99.90;;;15.45;100.00;100605.66;4857646;29;20213;-86
2022/10/16 01:33:24;;;;;;;647.70;598.28;;;15.30;99.90;;;15.42;100.00;100613.66;4852400;29;20210;-86
2022/10/16 01:36:24;;;;;;;644.92;596.08;;;15.30;99.90;;;15.40;100.00;100608.34;4860767;29;20210;-86
2022/10/16 01:39:14;;;;;;;642.22;593.00;;;15.30;99.90;;;15.35;100.00;100621.72;4860065;29;20217;-86
2022/10/16 01:42:18;;;;;;;647.40;597.75;;;15.20;99.90;;;15.35;100.00;100618.16;4854231;29;20212;-85
2022/10/16 01:45:11;;;;;;;639.33;590.40;;;15.20;99.90;;;15.35;100.00;100616.38;4861615;29;20233;-86
2022/10/16 01:48:04;;;;;;;641.70;592.55;;;15.20;99.90;;;15.37;100.00;100624.34;4860641;29;20605;-86
2022/10/16 01:51:09;;;;;;;638.88;589.85;;;15.20;99.90;;;15.34;100.00;100614.59;4861365;29;20217;-86
2022/10/16 01:54:00;;;;;;;639.72;589.72;;;15.20;99.90;;;15.39;100.00;100622.56;4875317;29;20204;-85
2022/10/16 01:56:49;;;;;;;639.70;590.42;;;15.30;99.90;;;15.41;100.00;100631.44;4866722;29;20212;-86
2022/10/16 01:59:45;;;;;;;636.58;587.15;;;15.30;99.90;;;15.36;100.00;100631.47;4878869;29;20229;-85
2022/10/16 02:02:34;;;;;;;628.25;579.10;;;15.20;99.90;;;15.38;100.00;100634.13;4842669;29;20213;-85
2022/10/16 02:05:33;;;;;;;631.78;582.53;;;15.20;99.90;;;15.37;100.00;100624.34;4850931;29;20229;-85
2022/10/16 02:08:24;;;;;;;627.95;579.08;;;15.30;99.90;;;15.37;100.00;100629.69;4846458;29;20230;-85
2022/10/16 02:11:12;;;;;;;637.05;588.58;;;15.20;99.90;;;15.34;100.00;100633.25;4867479;29;20221;-85
2022/10/16 02:14:06;;;;;;;638.60;590.22;;;15.20;99.90;;;15.32;100.00;100632.38;4866826;29;20213;-85
2022/10/16 02:16:54;;;;;;;635.95;586.90;;;15.20;99.90;;;15.36;100.00;100630.59;4870810;29;20216;-85
2022/10/16 02:19:45;;;;;;;636.05;587.03;;;15.20;99.90;;;15.35;100.00;100636.81;4856315;29;20245;-85
2022/10/16 02:22:38;;;;;;;636.83;588.17;;;15.20;99.90;;;15.34;100.00;100632.38;4851234;29;20204;-85
2022/10/16 02:25:34;;;;;;;633.33;584.45;;;15.20;99.90;;;15.33;100.00;100638.59;4849311;29;20260;-85
2022/10/16 02:28:30;;;;;;;630.60;582.83;;;15.20;99.90;;;15.35;100.00;100636.81;4849055;29;20221;-85
2022/10/16 02:31:27;;;;;;;638.63;590.47;;;15.20;99.90;;;15.34;100.00;100645.69;4872010;29;20204;-85
2022/10/16 02:34:16;;;;;;;638.30;590.60;;;15.20;99.90;;;15.34;100.00;100635.94;4843411;29;20198;-85
2022/10/16 02:37:06;;;;;;;635.38;588.20;;;15.10;99.90;;;15.31;100.00;100619.06;4867834;29;20197;-85
2022/10/16 02:39:57;;;;;;;639.83;591.97;;;15.10;99.90;;;15.24;100.00;100626.22;4861368;29;20248;-86
2022/10/16 02:42:54;;;;;;;639.80;592.08;;;15.10;99.90;;;15.24;100.00;100625.34;4866517;29;20206;-85
2022/10/16 02:45:42;;;;;;;632.25;585.08;;;15.10;99.90;;;15.21;100.00;100633.34;4860695;29;20264;-86
2022/10/16 02:48:30;;;;;;;639.83;592.33;;;15.00;99.90;;;15.21;100.00;100644.91;4860366;29;20233;-86
2022/10/16 02:51:18;;;;;;;638.53;591.03;;;15.10;99.90;;;15.24;100.00;100654.66;4860860;29;20205;-85
2022/10/16 02:54:07;;;;;;;640.95;593.75;;;15.10;99.90;;;15.25;100.00;100653.75;4861779;29;20216;-86
2022/10/16 02:56:55;;;;;;;639.35;592.10;;;15.10;99.90;;;15.29;100.00;100659.06;4891282;29;20209;-86
2022/10/16 02:59:43;;;;;;;639.85;592.80;;;15.10;99.90;;;15.24;100.00;100641.34;4873605;29;20245;-84
2022/10/16 03:02:32;;;;;;;632.30;585.97;;;15.10;99.90;;;15.20;100.00;100642.25;4865148;29;20645;-84
2022/10/16 03:05:20;;;;;;;634.58;588.28;;;15.10;99.90;;;15.21;100.00;100647.56;4859979;29;20233;-84
2022/10/16 03:08:09;;;;;;;632.63;585.78;;;15.10;99.90;;;15.21;100.00;100644.00;4860387;29;20683;-84
2022/10/16 03:10:57;;;;;;;634.03;587.65;;;15.00;99.90;;;15.16;100.00;100651.16;4860039;29;20217;-84
2022/10/16 03:13:48;;;;;;;638.00;591.38;;;15.00;99.90;;;15.16;100.00;100651.16;4859484;29;20216;-84
2022/10/16 03:16:36;;;;;;;637.38;590.55;;;15.00;99.90;;;15.19;100.00;100662.66;4871808;29;20205;-83
2022/10/16 03:19:24;;;;;;;637.13;589.78;;;15.00;99.90;;;15.17;100.00;100650.25;4864454;29;20236;-84
2022/10/16 03:22:12;;;;;;;644.35;596.17;;;15.00;99.90;;;15.11;100.00;100643.19;4856535;29;20233;-84
2022/10/16 03:25:01;;;;;;;631.60;586.00;;;15.00;99.90;;;15.09;100.00;100644.09;4841700;29;20213;-84
2022/10/16 03:27:49;;;;;;;629.13;583.35;;;14.90;99.90;;;15.07;100.00;100646.75;4840657;29;20230;-84
2022/10/16 03:30:39;;;;;;;637.30;590.55;;;15.00;99.90;;;15.07;100.00;100657.41;4848695;29;20204;-85
2022/10/16 03:33:27;;;;;;;624.70;578.40;;;15.00;99.90;;;15.10;100.00;100656.53;4840797;29;20218;-84
2022/10/16 03:36:15;;;;;;;627.13;580.90;;;15.00;99.90;;;15.05;100.00;100656.53;4847198;29;20214;-84
2022/10/16 03:39:04;;;;;;;624.53;578.45;;;14.90;99.90;;;14.95;100.00;100654.81;4859139;29;20221;-84
2022/10/16 03:41:52;;;;;;;627.72;582.15;;;14.90;99.90;;;14.96;100.00;100668.13;4854336;29;20214;-83
2022/10/16 03:44:40;;;;;;;629.90;584.13;;;14.80;99.90;;;14.99;100.00;100669.91;4840835;29;20224;-84
2022/10/16 03:47:28;;;;;;;634.20;587.70;;;14.80;99.90;;;14.93;100.00;100670.81;4841140;29;20202;-83
2022/10/16 03:50:16;;;;;;;615.33;570.90;;;14.80;99.90;;;14.97;100.00;100674.34;4840907;29;20239;-84
2022/10/16 03:53:05;;;;;;;620.10;575.10;;;14.80;99.90;;;15.06;100.00;100695.59;4854694;29;20225;-84
2022/10/16 03:55:53;;;;;;;621.63;576.03;;;14.80;99.90;;;15.03;100.00;100692.97;4860040;29;20209;-85
2022/10/16 03:58:42;;;;;;;624.63;579.58;;;14.90;99.90;;;15.04;100.00;100689.41;4869246;29;20225;-84
2022/10/16 04:01:30;;;;;;;622.38;577.42;;;14.90;99.90;;;15.04;100.00;100682.28;4859133;29;20205;-85
2022/10/16 04:04:18;;;;;;;619.92;574.90;;;14.90;99.90;;;14.98;100.00;100674.34;4851474;29;20210;-85
2022/10/16 04:07:06;;;;;;;630.38;584.88;;;14.90;99.90;;;15.02;100.00;100684.09;4840829;29;20256;-84
2022/10/16 04:09:54;;;;;;;624.70;579.72;;;14.80;99.90;;;15.02;100.00;100693.84;4850872;29;20204;-84
2022/10/16 04:12:43;;;;;;;619.72;574.50;;;14.80;99.90;;;15.02;100.00;100699.19;4878373;29;20205;-84
2022/10/16 04:15:31;;;;;;;617.58;571.80;;;14.90;99.90;;;14.96;100.00;100699.22;4855440;29;20202;-85
2022/10/16 04:18:19;;;;;;;619.80;574.70;;;14.90;99.90;;;15.01;100.00;100718.72;4852356;29;20230;-85
2022/10/16 04:21:08;;;;;;;625.03;579.83;;;14.80;99.90;;;14.96;100.00;100715.19;4850297;29;20312;-84
2022/10/16 04:23:56;;;;;;;623.58;578.45;;;14.80;99.90;;;14.89;100.00;100711.66;4840641;29;20653;-85
2022/10/16 04:26:44;;;;;;;621.28;575.97;;;14.80;99.90;;;14.81;100.00;100700.16;4840978;29;20245;-85
2022/10/16 04:29:32;;;;;;;618.47;573.28;;;14.70;99.90;;;14.85;100.00;100707.25;4839535;29;20225;-85
2022/10/16 04:32:20;;;;;;;613.60;568.25;;;14.70;99.90;;;14.89;100.00;100717.00;4858219;29;20589;-85
2022/10/16 04:35:09;;;;;;;624.20;578.55;;;14.70;99.90;;;14.94;100.00;100706.31;4868755;29;20208;-85
2022/10/16 04:37:58;;;;;;;620.80;575.38;;;14.80;99.90;;;14.89;100.00;100692.13;4840869;29;20245;-84
2022/10/16 04:40:46;;;;;;;625.03;579.60;;;14.80;99.90;;;14.93;100.00;100708.09;4839932;29;20217;-85
2022/10/16 04:43:34;;;;;;;622.45;577.47;;;14.80;99.90;;;14.94;100.00;100706.31;4858851;29;20223;-85
2022/10/16 04:46:23;;;;;;;622.53;577.10;;;14.80;99.90;;;14.89;100.00;100705.44;4857573;29;20232;-84
2022/10/16 04:49:11;;;;;;;621.85;576.83;;;14.70;99.90;;;14.86;100.00;100709.00;4841163;29;20232;-84
2022/10/16 04:51:59;;;;;;;619.70;574.90;;;14.70;99.90;;;14.83;100.00;100690.38;4840575;29;20210;-84
2022/10/16 04:54:47;;;;;;;623.50;578.80;;;14.70;99.90;;;14.85;100.00;100704.59;4840969;29;20210;-84
2022/10/16 04:57:35;;;;;;;632.60;587.47;;;14.70;99.90;;;14.87;100.00;100716.09;4840530;29;20214;-84
2022/10/16 05:00:23;;;;;;;624.35;580.78;;;14.70;99.90;;;14.79;100.00;100714.38;4858053;29;20217;-84
2022/10/16 05:03:13;;;;;;;618.78;575.17;;;14.70;99.90;;;14.81;100.00;100707.25;4858449;29;20213;-84
2022/10/16 05:06:01;;;;;;;623.40;578.60;;;14.60;99.90;;;14.75;100.00;100718.81;4841530;29;20237;-84
2022/10/16 05:08:49;;;;;;;622.55;577.80;;;14.60;99.90;;;14.69;100.00;100713.50;4839562;29;20234;-84
2022/10/16 05:11:38;;;;;;;611.88;568.03;;;14.60;99.90;;;14.69;100.00;100724.16;4867335;29;20204;-84
2022/10/16 05:14:26;;;;;;;617.92;573.92;;;14.50;99.90;;;14.68;100.00;100706.41;4888506;29;20209;-84
2022/10/16 05:17:14;;;;;;;615.90;573.10;;;14.50;99.90;;;14.75;100.00;100702.84;4861709;29;20206;-84
2022/10/16 05:20:03;;;;;;;613.25;570.33;;;14.60;99.90;;;14.76;100.00;100715.25;4877015;29;20224;-84
2022/10/16 05:22:51;;;;;;;614.03;570.50;;;14.60;99.90;;;14.70;100.00;100710.84;4848002;29;20210;-83
2022/10/16 05:25:39;;;;;;;612.95;568.75;;;14.50;99.90;;;14.71;100.00;100715.28;4843323;29;20214;-84
2022/10/16 05:28:30;;;;;;;605.58;561.28;;;14.60;99.90;;;14.71;100.00;100727.72;4855146;29;20237;-84
2022/10/16 05:31:19;;;;;;;606.85;562.55;;;14.60;99.90;;;14.71;100.00;100741.00;4868067;29;20660;-84
2022/10/16 05:34:07;;;;;;;608.78;564.72;;;14.60;99.90;;;14.68;100.00;100741.03;4843919;29;20224;-84
2022/10/16 05:36:56;;;;;;;605.33;560.22;;;14.50;99.90;;;14.69;100.00;100751.66;4842926;29;20691;-82
2022/10/16 05:39:45;;;;;;;597.83;553.60;;;14.60;99.90;;;14.74;100.00;100754.31;4843298;29;20230;-84
2022/10/16 05:42:33;;;;;;;604.42;559.50;;;14.60;99.90;;;14.78;100.00;100737.44;4843123;29;20644;-84
2022/10/16 05:45:21;;;;;;;598.55;554.88;;;14.60;99.90;;;14.73;100.00;100747.22;4843385;29;20218;-84
2022/10/16 05:48:10;;;;;;;599.92;555.50;;;14.60;99.90;;;14.74;100.00;100746.34;4842663;29;20229;-82
2022/10/16 05:51:03;;;;;;;599.08;554.90;;;14.60;99.90;;;14.70;100.00;100755.22;4842388;29;20202;-83
2022/10/16 05:53:52;;;;;;;596.58;552.42;;;14.60;99.90;;;14.67;100.00;100761.44;4843597;29;20217;-83
2022/10/16 05:56:40;;;;;;;599.08;554.95;;;14.60;99.90;;;14.67;100.00;100779.19;4861167;29;20205;-83
2022/10/16 05:59:28;;;;;;;594.67;549.78;;;14.60;99.90;;;14.67;100.00;100785.41;4860646;29;20237;-83
2022/10/16 06:02:17;;;;;;;597.67;553.72;;;14.50;99.90;;;14.68;100.00;100783.63;4861479;29;20205;-83
2022/10/16 06:05:05;;;;;;;602.55;559.10;;;14.60;99.90;;;14.69;100.00;100791.59;4868819;29;20214;-83
2022/10/16 06:07:54;;;;;;;605.83;561.10;;;14.60;99.90;;;14.63;100.00;100793.38;4842053;29;20241;-83
2022/10/16 06:10:43;;;;;;;600.42;556.28;;;14.50;99.90;;;14.66;100.00;100796.03;4848062;29;20217;-83
2022/10/16 06:13:31;;;;;;;600.67;556.35;;;14.50;99.90;;;14.67;100.00;100796.03;4860509;29;20210;-83
2022/10/16 06:16:20;;;;;;;604.13;559.55;;;14.50;99.90;;;14.66;100.00;100791.59;4860558;29;20773;-83
2022/10/16 06:19:09;;;;;;;599.05;555.35;;;14.50;99.90;;;14.66;100.00;100785.41;4859808;29;20225;-83
2022/10/16 06:21:58;;;;;;;599.60;555.25;;;14.50;99.90;;;14.70;100.00;100789.81;4859422;29;20202;-83
2022/10/16 06:24:47;;;;;;;604.97;561.10;;;14.60;99.90;;;14.75;100.00;100795.13;4860444;29;20689;-83
2022/10/16 06:27:35;;;;;;;607.10;563.97;;;14.60;99.90;;;14.77;100.00;100812.88;4859969;29;20244;-83
2022/10/16 06:30:23;;;;;;;602.58;560.25;;;14.60;99.90;;;14.79;100.00;100811.09;4843086;29;20690;-83
2022/10/16 06:33:12;;;;;;;610.78;567.17;;;14.60;99.90;;;14.76;100.00;100808.44;4841872;29;20217;-82
2022/10/16 06:36:10;;;;;;;610.28;566.28;;;14.60;99.90;;;14.85;100.00;100821.75;4842734;29;20209;-83
2022/10/16 06:38:58;;;;;;;610.20;566.15;;;14.70;99.90;;;14.85;100.00;100827.06;4841901;29;20234;-83
2022/10/16 06:41:46;;;;;;;604.35;560.47;;;14.70;99.90;;;14.87;100.00;100827.94;4847232;29;20213;-82
2022/10/16 06:44:37;;;;;;;605.20;562.92;;;14.70;99.90;;;14.91;100.00;100842.16;4862623;29;20209;-82
2022/10/16 06:47:25;;;;;;;613.70;569.75;;;14.70;99.90;;;14.94;100.00;100847.47;4860284;29;20233;-83
2022/10/16 06:50:14;;;;;;;604.83;563.88;;;14.70;99.90;;;14.98;100.00;100854.56;4862670;29;20216;-83
2022/10/16 06:53:02;;;;;;;612.50;569.85;;;14.80;99.90;;;14.99;100.00;100843.91;4868520;29;20228;-84
2022/10/16 06:55:50;;;;;;;623.53;578.55;;;14.80;99.90;;;14.97;100.00;100840.34;4859033;29;20214;-83
2022/10/16 06:58:39;;;;;;;613.67;570.55;;;14.80;99.90;;;14.99;100.00;100840.34;4846668;29;20593;-83
2022/10/16 07:01:29;;;;;;;611.13;568.05;;;14.80;99.90;;;15.03;100.00;100863.41;4859435;29;20679;-83
2022/10/16 07:04:17;;;;;;;607.03;564.42;;;14.90;99.90;;;15.09;100.00;100865.19;4856219;29;20217;-84
2022/10/16 07:07:05;;;;;;;614.63;571.45;;;14.90;99.90;;;15.10;100.00;100875.84;4843601;29;20237;-84
2022/10/16 07:09:56;;;;;;;607.30;565.10;;;14.90;99.90;;;15.16;100.00;100881.16;4859343;29;20217;-84
2022/10/16 07:12:44;;;;;;;608.55;565.55;;;15.00;99.90;;;15.20;100.00;100884.69;4874413;29;20216;-84
2022/10/16 07:15:33;;;;;;;615.28;571.90;;;15.00;99.90;;;15.25;100.00;100899.78;4861647;29;20214;-85
2022/10/16 07:18:25;;;;;;;616.20;571.75;;;15.10;99.90;;;15.32;100.00;100903.31;4859932;29;20233;-85
2022/10/16 07:21:19;;;;;;;617.38;573.47;;;15.20;99.90;;;15.32;100.00;100909.53;4861529;29;20248;-84
2022/10/16 07:24:16;;;;;;;620.67;577.47;;;15.20;99.90;;;15.41;100.00;100924.59;4860386;29;20205;-83
2022/10/16 07:27:04;;;;;;;628.10;583.58;;;15.20;99.90;;;15.38;100.00;100921.94;4861416;29;20303;-84
2022/10/16 07:29:52;;;;;;;628.58;584.42;;;15.20;99.90;;;15.50;100.00;100939.69;4880070;29;20208;-84
2022/10/16 07:32:40;;;;;;;632.00;587.58;;;15.30;99.90;;;15.52;100.00;100937.91;4867950;29;20210;-84
2022/10/16 07:35:28;;;;;;;633.83;589.25;;;15.30;99.90;;;15.56;100.00;100947.66;4860559;29;20209;-85
2022/10/16 07:38:17;;;;;;;638.22;593.67;;;15.40;99.90;;;15.53;100.00;100942.34;4849117;29;20252;-84
2022/10/16 07:41:08;;;;;;;637.88;593.55;;;15.40;99.90;;;15.58;100.00;100945.91;4840979;29;20222;-84
2022/10/16 07:43:59;;;;;;;643.17;598.78;;;15.40;99.90;;;15.61;100.00;100943.25;4852091;29;20217;-84
2022/10/16 07:46:48;;;;;;;643.95;599.67;;;15.40;99.90;;;15.73;100.00;100953.00;4860533;29;20291;-84
2022/10/16 07:49:36;;;;;;;649.17;604.95;;;15.50;99.90;;;15.81;100.00;100956.53;4849772;29;20234;-84
2022/10/16 07:52:24;;;;;;;648.40;604.63;;;15.60;99.90;;;15.77;100.00;100949.44;4842228;29;20202;-84
2022/10/16 07:55:13;;;;;;;653.53;609.75;;;15.60;99.90;;;15.81;100.00;100960.06;4840867;29;20218;-83
2022/10/16 07:58:01;;;;;;;662.20;618.42;;;15.70;99.90;;;15.79;100.00;100948.53;4852622;29;20217;-85
2022/10/16 08:00:49;;;;;;;663.97;620.05;;;15.70;99.90;;;15.84;100.00;100953.84;4854537;29;20224;-85
2022/10/16 08:03:37;;;;;;;659.75;615.88;;;15.70;99.90;;;15.81;100.00;100954.75;4860094;29;20573;-84
2022/10/16 08:06:25;;;;;;;665.45;621.60;;;15.70;99.90;;;15.81;100.00;100962.75;4859798;29;20675;-84
2022/10/16 08:09:15;;;;;;;659.75;615.97;;;15.70;99.90;;;15.82;100.00;100960.97;4840892;29;20249;-84
2022/10/16 08:12:04;;;;;;;664.47;620.50;;;15.70;99.90;;;15.83;100.00;100968.94;4863144;29;20209;-83
2022/10/16 08:14:52;;;;;;;672.05;627.75;;;15.50;99.90;;;15.86;100.00;100970.72;4878143;29;20208;-85
2022/10/16 08:17:40;;;;;;;674.10;631.40;;;15.70;99.90;;;15.94;100.00;100971.56;4888703;29;20586;-84
2022/10/16 08:20:30;;;;;;;664.47;621.80;;;15.80;99.90;;;15.92;100.00;100982.25;4878191;29;20213;-84
2022/10/16 08:23:18;;;;;;;677.78;633.67;;;15.80;99.90;;;15.98;100.00;100979.56;4877815;29;20208;-84
2022/10/16 08:26:08;;;;;;;673.78;629.83;;;15.90;99.90;;;16.04;100.00;100981.31;4860836;29;20213;-84
2022/10/16 08:28:56;;;;;;;678.42;633.92;;;15.90;99.90;;;16.13;100.00;100997.28;4842917;29;20257;-84
2022/10/16 08:31:45;;;;;;;680.17;635.75;;;16.00;99.90;;;16.18;100.00;101015.94;4873092;29;20209;-84
2022/10/16 08:34:33;;;;;;;682.22;637.92;;;16.00;99.90;;;16.20;100.00;101028.38;4867693;29;20214;-84
2022/10/16 08:37:22;;;;;;;692.67;646.88;;;16.10;99.90;;;16.21;100.00;101042.59;4842146;29;20202;-84
2022/10/16 08:40:32;;;;;;;690.97;646.38;;;16.10;99.90;;;16.15;100.00;101059.53;4850402;29;20205;-83
2022/10/16 08:43:23;;;;;;;669.58;625.58;;;16.00;99.90;;;16.11;100.00;101052.44;4870728;29;20213;-83
2022/10/16 08:46:27;;;;;;;686.92;642.17;;;16.00;99.90;;;16.15;100.00;101027.50;4869244;29;20205;-82
2022/10/16 08:49:15;;;;;;;683.40;639.47;;;16.00;99.90;;;16.37;100.00;101041.63;4871341;29;20264;-82
2022/10/16 08:52:04;;;;;;;692.20;647.78;;;16.20;99.90;;;16.54;100.00;101041.53;4867308;29;20224;-82
2022/10/16 08:54:55;;;;;;;694.20;649.70;;;16.30;99.90;;;16.71;100.00;101055.72;4849445;29;20219;-82
2022/10/16 08:57:43;;;;;;;701.33;656.22;;;16.50;99.90;;;17.09;100.00;101062.63;4874678;29;20240;-82
2022/10/16 09:00:33;;;;;;;707.85;662.58;;;16.80;99.90;;;17.19;100.00;101057.19;4861154;29;20228;-82
2022/10/16 09:03:48;;;;;;;709.60;665.10;;;16.90;99.90;;;17.36;100.00;101056.16;4851832;29;20207;-83
2022/10/16 09:07:09;;;;;;;713.40;667.80;;;17.10;99.90;;;17.42;100.00;101045.41;4844896;29;20210;-83
2022/10/16 09:10:38;;;;;;;714.78;669.35;;;17.20;99.90;;;17.61;100.00;101044.31;4842752;29;20210;-83
2022/10/16 09:13:50;;;;;;;715.15;669.72;;;17.40;99.90;;;17.54;100.00;101037.25;4843431;29;20218;-84
2022/10/16 09:16:53;;;;;;;723.40;677.83;;;17.40;99.90;;;17.42;100.00;101022.22;4843021;29;20198;-83
2022/10/16 09:20:25;;;;;;;734.58;687.95;;;17.30;99.90;;;17.66;100.00;101023.78;4842103;29;20246;-83
2022/10/16 09:23:18;;;;;;;735.13;688.92;;;17.40;99.90;;;17.90;100.00;101036.00;4843735;29;20217;-83
2022/10/16 09:26:11;;;;;;;748.38;701.85;;;17.70;99.90;;;18.01;100.00;101022.50;4842776;29;20214;-83
2022/10/16 09:29:00;;;;;;;759.67;712.85;;;17.80;99.90;;;18.07;100.00;101011.72;4848550;29;20237;-83
2022/10/16 09:31:48;;;;;;;760.00;713.58;;;17.90;99.90;;;18.09;100.00;100997.41;4862863;29;20212;-84
2022/10/16 09:34:44;;;;;;;776.13;729.03;;;18.80;99.90;;;18.18;100.00;100989.25;4862073;29;20216;-84
2022/10/16 09:37:32;;;;;;;776.63;729.80;;;17.90;99.90;;;18.01;100.00;100975.22;4860264;29;20197;-83
2022/10/16 09:40:34;;;;;;;781.53;736.13;;;17.80;99.90;;;18.00;100.00;100972.56;4860614;29;20208;-83
2022/10/16 09:43:22;;;;;;;779.85;734.50;;;17.90;99.90;;;18.01;100.00;100971.66;4873448;29;20212;-83
2022/10/16 09:46:33;;;;;;;789.17;743.08;;;17.90;99.90;;;18.10;100.00;100976.88;4861561;29;20212;-83
2022/10/16 09:49:25;;;;;;;785.30;738.65;;;17.90;99.90;;;18.34;100.00;100987.31;4860666;29;20237;-83
2022/10/16 09:52:15;;;;;;;798.95;750.22;;;18.10;99.90;;;18.47;100.00;100982.66;4861291;29;20205;-83
2022/10/16 09:55:16;;;;;;;807.90;758.63;;;18.20;99.90;;;18.35;100.00;100966.75;4861229;29;20220;-83
2022/10/16 09:58:13;;;;;;;813.22;763.38;;;18.20;99.90;;;18.51;100.00;100961.16;4844383;29;20226;-82
2022/10/16 10:01:01;;;;;;;814.35;765.05;;;18.30;99.90;;;18.42;100.00;100937.19;4862723;29;20209;-83
2022/10/16 10:03:53;;;;;;;821.05;771.25;;;18.30;99.90;;;18.37;100.00;100938.16;4878167;29;20588;-83
2022/10/16 10:06:52;;;;;;;824.53;773.70;;;18.20;99.90;;;18.43;100.00;100948.78;4871265;29;20213;-83
2022/10/16 10:09:45;;;;;;;823.05;772.75;;;18.20;99.90;;;18.48;100.00;100944.25;4859618;29;20239;-83
2022/10/16 10:12:36;;;;;;;834.28;783.53;;;18.30;99.90;;;18.53;100.00;100940.59;4861258;29;20287;-83
2022/10/16 10:15:26;;;;;;;839.17;788.20;;;18.40;99.90;;;18.63;100.00;100943.16;4859973;29;20197;-83
2022/10/16 10:18:19;;;;;;;847.25;796.25;;;18.40;99.90;;;18.69;100.00;100941.25;4841282;29;20229;-84
2022/10/16 10:21:15;;;;;;;841.80;791.58;;;18.50;99.90;;;18.78;100.00;100935.75;4843199;29;20214;-86
2022/10/16 10:24:04;;;;;;;848.45;797.95;;;18.60;99.90;;;18.84;100.00;100926.72;4875811;29;20213;-86
2022/10/16 10:27:16;;;;;;;854.72;803.88;;;18.70;99.90;;;18.97;100.00;100927.41;4868432;29;20201;-83
2022/10/16 10:30:13;;;;;;;848.00;793.67;;;18.80;99.90;;;19.15;100.00;100921.69;4871997;29;20240;-84
2022/10/16 10:33:58;;;;;;;857.30;801.08;;;18.90;99.90;;;19.02;100.00;100896.91;4852552;29;20226;-83
2022/10/16 10:37:18;;;;;;;851.28;794.17;;;18.90;99.90;;;19.32;100.00;100903.50;4839142;29;20225;-82
2022/10/16 10:40:44;;;;;;;856.05;798.80;;;19.30;99.90;;;19.53;100.00;100902.25;4852217;29;20221;-83
2022/10/16 10:43:47;;;;;;;856.28;799.28;;;19.30;99.90;;;19.44;100.00;100873.75;4853701;29;20217;-82
2022/10/16 10:46:51;;;;;;;862.75;805.38;;;19.50;99.90;;;19.69;100.00;100892.09;4853652;29;20212;-82
2022/10/16 10:50:10;;;;;;;869.42;811.42;;;19.60;99.90;;;19.92;100.00;100886.22;4850793;29;20237;-83
2022/10/16 10:53:42;;;;;;;876.65;818.25;;;19.70;99.90;;;19.84;100.00;100856.88;4847649;29;20208;-82
2022/10/16 10:56:46;;;;;;;874.25;816.28;;;19.80;99.90;;;20.22;100.00;100869.41;4850478;29;20205;-82
2022/10/16 10:59:48;;;;;;;885.55;826.72;;;19.90;99.90;;;20.54;100.00;100882.09;4868141;29;20217;-82
2022/10/16 11:02:58;;;;;;;896.30;837.10;;;20.20;99.90;;;20.85;100.00;100890.28;4857477;29;20201;-82
2022/10/16 11:05:54;;;;;;;899.45;840.28;;;20.90;99.90;;;21.26;100.00;100897.28;4852711;29;20196;-82
2022/10/16 11:09:12;;;;;;;909.90;850.53;;;21.10;99.90;;;21.56;100.00;100894.66;4854433;29;20228;-82
2022/10/16 11:12:26;;;;;;;922.70;862.95;;;21.20;99.90;;;21.59;100.00;100863.16;4852780;29;20205;-82
2022/10/16 11:15:31;;;;;;;934.45;873.90;;;21.40;99.90;;;21.64;100.00;100845.06;4869620;29;20208;-82
2022/10/16 11:18:55;;;;;;;937.88;877.03;;;21.40;99.90;;;22.14;100.00;100861.53;4842046;29;20232;-83
2022/10/16 11:21:54;;;;;;;952.13;890.72;;;21.80;99.90;;;22.09;100.00;100817.66;4862708;29;20223;-83
2022/10/16 11:25:13;;;;;;;958.25;897.42;;;22.20;99.90;;;22.18;100.00;100787.75;4846439;29;20228;-82